PWSweather.com
Personal Weather Stations
Station Observations
AC5JC
Greenleaf Peninsula, Waco, Waco, TX 76710

Greenleaf Peninsula, WacoWaco, TX 76710

Lat: 31.565, Lon: -97.198

Elevation: 570

Station Type: Ambient WS-1400IP

http://ac5jc.dyndns.org

High Low Average
Temperature 57.0°F13.9°C 54.0°F12.2°C 56.3°F13.5°C
Dew Point 56.7°F13.7°C 53.2°F11.8°C 55.9°F13.3°C
Winds 6.5 mph 10.5 kmh Calm Calm 2.0 mph S3.2 kmh S
Wind Gusts 15.0 mph24.1 kmh -- 5.0 mph8.0 kmh
Humidity 99% 97% 99%
Pressure 29.53 in1000.0 mb 29.40 in995.6 mb -
Precipitation 0.34 in8.6 mm - -
Hour Temp Dew Point Humidity Winds Wind Gusts Pressure Precip Precip Rate Daily Precip Total
12:00 AM 56.8°F13.8°C 56.2°F13.4°C 98% 1.1 mph NE1.8 kmh NE 4.9 mph7.9 kmh 29.44 in997.0 mb 0.00 in0.0 mm 0.00 in0.0 mm 0.00 in0.0 mm
12:05 AM 56.8°F13.8°C 56.2°F13.4°C 98% 3.4 mph NE5.5 kmh NE 9.8 mph15.8 kmh 29.44 in997.0 mb 0.00 in0.0 mm 0.00 in0.0 mm 0.00 in0.0 mm
12:10 AM 56.7°F13.7°C 56.1°F13.4°C 98% 0.1 mph NW0.2 kmh NW 2.5 mph4.0 kmh 29.44 in997.0 mb 0.00 in0.0 mm 0.00 in0.0 mm 0.00 in0.0 mm
12:15 AM 56.7°F13.7°C 56.1°F13.4°C 98% 1.3 mph NNE2.1 kmh NNE 4.9 mph7.9 kmh 29.44 in997.0 mb 0.00 in0.0 mm 0.00 in0.0 mm 0.00 in0.0 mm
12:20 AM 56.7°F13.7°C 56.1°F13.4°C 98% 1.3 mph NNE2.1 kmh NNE 4.9 mph7.9 kmh 29.44 in997.0 mb 0.00 in0.0 mm 0.00 in0.0 mm 0.00 in0.0 mm
12:25 AM 56.7°F13.7°C 56.1°F13.4°C 98% 1.8 mph NE2.9 kmh NE 4.9 mph7.9 kmh 29.44 in997.0 mb 0.00 in0.0 mm 0.00 in0.0 mm 0.00 in0.0 mm
12:30 AM 56.7°F13.7°C 55.9°F13.3°C 97% 1.1 mph NE1.8 kmh NE 2.5 mph4.0 kmh 29.44 in997.0 mb 0.00 in0.0 mm 0.00 in0.0 mm 0.00 in0.0 mm
12:35 AM 56.7°F13.7°C 55.9°F13.3°C 97% 2.8 mph N4.5 kmh N 7.4 mph11.9 kmh 29.44 in997.0 mb 0.00 in0.0 mm 0.00 in0.0 mm 0.00 in0.0 mm
12:40 AM 56.7°F13.7°C 55.9°F13.3°C 97% 2.4 mph N3.9 kmh N 4.9 mph7.9 kmh 29.44 in997.0 mb 0.00 in0.0 mm 0.00 in0.0 mm 0.00 in0.0 mm
12:45 AM 56.7°F13.7°C 55.9°F13.3°C 97% 0.9 mph NNE1.4 kmh NNE 2.5 mph4.0 kmh 29.44 in997.0 mb 0.00 in0.0 mm 0.00 in0.0 mm 0.00 in0.0 mm
12:50 AM 56.7°F13.7°C 55.9°F13.3°C 97% 1.5 mph NNE2.4 kmh NNE 4.9 mph7.9 kmh 29.44 in997.0 mb 0.00 in0.0 mm 0.00 in0.0 mm 0.00 in0.0 mm
12:55 AM 56.7°F13.7°C 55.9°F13.3°C 97% 3.9 mph NNE6.3 kmh NNE 9.8 mph15.8 kmh 29.44 in997.0 mb 0.00 in0.0 mm 0.00 in0.0 mm 0.00 in0.0 mm
01:00 AM 56.7°F13.7°C 55.9°F13.3°C 97% 0.4 mph N0.6 kmh N 4.9 mph7.9 kmh 29.44 in997.0 mb 0.00 in0.0 mm 0.00 in0.0 mm 0.00 in0.0 mm
01:05 AM 56.7°F13.7°C 55.9°F13.3°C 97% 0.9 mph NW1.4 kmh NW 2.5 mph4.0 kmh 29.44 in997.0 mb 0.00 in0.0 mm 0.00 in0.0 mm 0.00 in0.0 mm
01:10 AM 56.7°F13.7°C 55.9°F13.3°C 97% 1.6 mph NNE2.6 kmh NNE 4.9 mph7.9 kmh 29.44 in997.0 mb 0.00 in0.0 mm 0.00 in0.0 mm 0.00 in0.0 mm
01:15 AM 56.7°F13.7°C 55.9°F13.3°C 97% 0.9 mph NNW1.4 kmh NNW 2.5 mph4.0 kmh 29.44 in997.0 mb 0.00 in0.0 mm 0.00 in0.0 mm 0.00 in0.0 mm
01:20 AM 56.7°F13.7°C 55.8°F13.2°C 97% 1.2 mph NE1.9 kmh NE 7.4 mph11.9 kmh 29.44 in997.0 mb 0.00 in0.0 mm 0.00 in0.0 mm 0.00 in0.0 mm
01:25 AM 56.5°F13.6°C 55.7°F13.2°C 97% 2.6 mph NE4.2 kmh NE 7.4 mph11.9 kmh 29.44 in997.0 mb 0.00 in0.0 mm 0.00 in0.0 mm 0.00 in0.0 mm
01:30 AM 56.5°F13.6°C 55.7°F13.2°C 97% 1.0 mph N1.6 kmh N 4.9 mph7.9 kmh 29.43 in996.6 mb 0.00 in0.0 mm 0.00 in0.0 mm 0.00 in0.0 mm
01:35 AM 56.5°F13.6°C 55.7°F13.2°C 97% 1.6 mph NNW2.6 kmh NNW 4.9 mph7.9 kmh 29.44 in997.0 mb 0.00 in0.0 mm 0.00 in0.0 mm 0.00 in0.0 mm
01:40 AM 56.5°F13.6°C 55.8°F13.2°C 98% 1.8 mph NNW2.9 kmh NNW 4.9 mph7.9 kmh 29.44 in997.0 mb 0.00 in0.0 mm 0.00 in0.0 mm 0.00 in0.0 mm
01:45 AM 56.5°F13.6°C 55.9°F13.3°C 98% 0.4 mph NW0.6 kmh NW 2.5 mph4.0 kmh 29.43 in996.6 mb 0.00 in0.0 mm 0.00 in0.0 mm 0.00 in0.0 mm
01:50 AM 56.5°F13.6°C 55.9°F13.3°C 98% 1.3 mph NE2.1 kmh NE 4.9 mph7.9 kmh 29.44 in997.0 mb 0.00 in0.0 mm 0.00 in0.0 mm 0.00 in0.0 mm
01:55 AM 56.5°F13.6°C 55.9°F13.3°C 98% 1.4 mph N2.3 kmh N 2.5 mph4.0 kmh 29.44 in997.0 mb 0.00 in0.0 mm 0.00 in0.0 mm 0.00 in0.0 mm
02:00 AM 56.5°F13.6°C 55.9°F13.3°C 98% 1.0 mph N1.6 kmh N 2.5 mph4.0 kmh 29.43 in996.6 mb 0.00 in0.0 mm 0.00 in0.0 mm 0.00 in0.0 mm
02:05 AM 56.6°F13.7°C 56.0°F13.3°C 98% 0.8 mph NNE1.3 kmh NNE 4.9 mph7.9 kmh 29.44 in997.0 mb 0.00 in0.0 mm 0.00 in0.0 mm 0.00 in0.0 mm
02:10 AM 56.7°F13.7°C 56.1°F13.4°C 98% 0.6 mph N1.0 kmh N 2.5 mph4.0 kmh 29.43 in996.6 mb 0.00 in0.0 mm 0.00 in0.0 mm 0.00 in0.0 mm
02:15 AM 56.6°F13.7°C 56.1°F13.4°C 98% 2.0 mph N3.2 kmh N 4.9 mph7.9 kmh 29.43 in996.6 mb 0.00 in0.0 mm 0.00 in0.0 mm 0.00 in0.0 mm
02:20 AM 56.5°F13.6°C 55.9°F13.3°C 98% 0.7 mph NNW1.1 kmh NNW 2.5 mph4.0 kmh 29.43 in996.6 mb 0.00 in0.0 mm 0.00 in0.0 mm 0.00 in0.0 mm
02:25 AM 56.5°F13.6°C 55.9°F13.3°C 98% 2.9 mph N4.7 kmh N 7.4 mph11.9 kmh 29.43 in996.6 mb 0.00 in0.0 mm 0.00 in0.0 mm 0.00 in0.0 mm
02:30 AM 56.5°F13.6°C 55.9°F13.3°C 98% 2.2 mph NNE3.5 kmh NNE 4.9 mph7.9 kmh 29.43 in996.6 mb 0.00 in0.0 mm 0.00 in0.0 mm 0.00 in0.0 mm
02:35 AM 56.5°F13.6°C 55.9°F13.3°C 98% 1.0 mph NW1.6 kmh NW 4.9 mph7.9 kmh 29.43 in996.6 mb 0.00 in0.0 mm 0.00 in0.0 mm 0.00 in0.0 mm
02:40 AM 56.5°F13.6°C 55.9°F13.3°C 98% 1.9 mph N3.1 kmh N 4.9 mph7.9 kmh 29.44 in997.0 mb 0.00 in0.0 mm 0.00 in0.0 mm 0.00 in0.0 mm
02:45 AM 56.5°F13.6°C 56.0°F13.3°C 98% 1.6 mph NE2.6 kmh NE 7.4 mph11.9 kmh 29.44 in997.0 mb 0.00 in0.0 mm 0.00 in0.0 mm 0.00 in0.0 mm
02:50 AM 56.7°F13.7°C 56.1°F13.4°C 98% 3.1 mph NE5.0 kmh NE 7.4 mph11.9 kmh 29.43 in996.6 mb 0.00 in0.0 mm 0.00 in0.0 mm 0.00 in0.0 mm
02:55 AM 56.6°F13.7°C 56.1°F13.4°C 98% 2.9 mph N4.7 kmh N 7.4 mph11.9 kmh 29.43 in996.6 mb 0.00 in0.0 mm 0.00 in0.0 mm 0.00 in0.0 mm
03:00 AM 56.5°F13.6°C 55.9°F13.3°C 98% 2.1 mph NNW3.4 kmh NNW 4.9 mph7.9 kmh 29.44 in997.0 mb 0.00 in0.0 mm 0.00 in0.0 mm 0.00 in0.0 mm
03:05 AM 56.5°F13.6°C 55.9°F13.3°C 98% 1.3 mph NE2.1 kmh NE 2.5 mph4.0 kmh 29.44 in997.0 mb 0.00 in0.0 mm 0.00 in0.0 mm 0.00 in0.0 mm
03:10 AM 56.7°F13.7°C 56.0°F13.3°C 97% 1.9 mph N3.1 kmh N 4.9 mph7.9 kmh 29.44 in997.0 mb 0.00 in0.0 mm 0.00 in0.0 mm 0.00 in0.0 mm
03:15 AM 56.7°F13.7°C 55.9°F13.3°C 97% 1.8 mph NNE2.9 kmh NNE 7.4 mph11.9 kmh 29.44 in997.0 mb 0.00 in0.0 mm 0.00 in0.0 mm 0.00 in0.0 mm
03:20 AM 56.7°F13.7°C 55.9°F13.3°C 97% 1.1 mph N1.8 kmh N 4.9 mph7.9 kmh 29.44 in997.0 mb 0.00 in0.0 mm 0.00 in0.0 mm 0.00 in0.0 mm
03:25 AM 56.7°F13.7°C 55.9°F13.3°C 97% 1.8 mph NNE2.9 kmh NNE 4.9 mph7.9 kmh 29.44 in997.0 mb 0.00 in0.0 mm 0.00 in0.0 mm 0.00 in0.0 mm
03:30 AM 56.7°F13.7°C 55.9°F13.3°C 97% 0.7 mph NE1.1 kmh NE 4.9 mph7.9 kmh 29.44 in997.0 mb 0.00 in0.0 mm 0.00 in0.0 mm 0.00 in0.0 mm
03:35 AM 56.7°F13.7°C 55.9°F13.3°C 97% 2.0 mph N3.2 kmh N 4.9 mph7.9 kmh 29.44 in997.0 mb 0.00 in0.0 mm 0.00 in0.0 mm 0.00 in0.0 mm
03:40 AM 56.7°F13.7°C 55.9°F13.3°C 97% 4.1 mph N6.6 kmh N 7.4 mph11.9 kmh 29.44 in997.0 mb 0.00 in0.0 mm 0.00 in0.0 mm 0.00 in0.0 mm
03:45 AM 56.5°F13.6°C 55.7°F13.2°C 97% 3.4 mph NE5.5 kmh NE 7.4 mph11.9 kmh 29.43 in996.6 mb 0.00 in0.0 mm 0.00 in0.0 mm 0.00 in0.0 mm
03:50 AM 56.5°F13.6°C 55.7°F13.2°C 97% 2.5 mph NNE4.0 kmh NNE 4.9 mph7.9 kmh 29.43 in996.6 mb 0.00 in0.0 mm 0.00 in0.0 mm 0.00 in0.0 mm
03:55 AM 56.5°F13.6°C 55.7°F13.2°C 97% 2.2 mph NE3.5 kmh NE 7.4 mph11.9 kmh 29.43 in996.6 mb 0.00 in0.0 mm 0.00 in0.0 mm 0.00 in0.0 mm
04:00 AM 56.5°F13.6°C 55.7°F13.2°C 97% 1.1 mph N1.8 kmh N 4.9 mph7.9 kmh 29.44 in997.0 mb 0.00 in0.0 mm 0.00 in0.0 mm 0.00 in0.0 mm
04:05 AM 56.5°F13.6°C 55.7°F13.2°C 97% 1.0 mph N1.6 kmh N 2.5 mph4.0 kmh 29.44 in997.0 mb 0.00 in0.0 mm 0.00 in0.0 mm 0.00 in0.0 mm
04:10 AM 56.3°F13.5°C 55.5°F13.1°C 97% 2.2 mph N3.5 kmh N 4.9 mph7.9 kmh 29.43 in996.6 mb 0.00 in0.0 mm 0.00 in0.0 mm 0.00 in0.0 mm
04:15 AM 56.3°F13.5°C 55.5°F13.1°C 97% 1.4 mph NNE2.3 kmh NNE 4.9 mph7.9 kmh 29.44 in997.0 mb 0.00 in0.0 mm 0.00 in0.0 mm 0.00 in0.0 mm
04:20 AM 56.3°F13.5°C 55.5°F13.1°C 97% 3.4 mph NE5.5 kmh NE 7.4 mph11.9 kmh 29.44 in997.0 mb 0.00 in0.0 mm 0.00 in0.0 mm 0.00 in0.0 mm
04:25 AM 56.3°F13.5°C 55.7°F13.2°C 98% 2.1 mph NE3.4 kmh NE 7.4 mph11.9 kmh 29.44 in997.0 mb 0.00 in0.0 mm 0.00 in0.0 mm 0.00 in0.0 mm
04:30 AM 56.3°F13.5°C 55.7°F13.2°C 98% 1.3 mph ENE2.1 kmh ENE 4.9 mph7.9 kmh 29.44 in997.0 mb 0.00 in0.0 mm 0.00 in0.0 mm 0.00 in0.0 mm
04:35 AM 56.3°F13.5°C 55.7°F13.2°C 98% 0.3 mph N0.5 kmh N 2.5 mph4.0 kmh 29.44 in997.0 mb 0.00 in0.0 mm 0.00 in0.0 mm 0.00 in0.0 mm
04:40 AM 56.3°F13.5°C 55.7°F13.2°C 98% 2.3 mph NE3.7 kmh NE 7.4 mph11.9 kmh 29.43 in996.6 mb 0.00 in0.0 mm 0.00 in0.0 mm 0.00 in0.0 mm
04:45 AM 56.3°F13.5°C 55.9°F13.3°C 99% 1.7 mph NE2.7 kmh NE 4.9 mph7.9 kmh 29.44 in997.0 mb 0.00 in0.0 mm 0.00 in0.0 mm 0.00 in0.0 mm
04:50 AM 56.4°F13.6°C 56.1°F13.4°C 99% 1.1 mph ENE1.8 kmh ENE 2.5 mph4.0 kmh 29.44 in997.0 mb 0.00 in0.0 mm 0.00 in0.0 mm 0.00 in0.0 mm
04:55 AM 56.3°F13.5°C 56.1°F13.4°C 99% 0.2 mph N0.3 kmh N 2.5 mph4.0 kmh 29.44 in997.0 mb 0.00 in0.0 mm 0.00 in0.0 mm 0.00 in0.0 mm
05:00 AM 56.5°F13.6°C 56.2°F13.4°C 99% 2.4 mph NNE3.9 kmh NNE 7.4 mph11.9 kmh 29.44 in997.0 mb 0.00 in0.0 mm 0.00 in0.0 mm 0.00 in0.0 mm
05:05 AM 56.3°F13.5°C 56.1°F13.4°C 99% 2.3 mph NE3.7 kmh NE 4.9 mph7.9 kmh 29.44 in997.0 mb 0.00 in0.0 mm 0.00 in0.0 mm 0.00 in0.0 mm
05:10 AM 56.3°F13.5°C 56.0°F13.3°C 99% 1.5 mph N2.4 kmh N 4.9 mph7.9 kmh 29.44 in997.0 mb 0.00 in0.0 mm 0.00 in0.0 mm 0.00 in0.0 mm
05:15 AM 56.3°F13.5°C 56.0°F13.3°C 99% 2.3 mph NNE3.7 kmh NNE 7.4 mph11.9 kmh 29.44 in997.0 mb 0.00 in0.0 mm 0.00 in0.0 mm 0.00 in0.0 mm
05:20 AM 56.3°F13.5°C 56.0°F13.3°C 99% 1.5 mph NE2.4 kmh NE 2.5 mph4.0 kmh 29.44 in997.0 mb 0.00 in0.0 mm 0.00 in0.0 mm 0.00 in0.0 mm
05:25 AM 56.3°F13.5°C 56.0°F13.3°C 99% 0.5 mph NE0.8 kmh NE 2.5 mph4.0 kmh 29.44 in997.0 mb 0.00 in0.0 mm 0.00 in0.0 mm 0.00 in0.0 mm
05:30 AM 56.3°F13.5°C 56.0°F13.3°C 99% 1.8 mph N2.9 kmh N 4.9 mph7.9 kmh 29.45 in997.3 mb 0.00 in0.0 mm 0.00 in0.0 mm 0.00 in0.0 mm
05:35 AM 56.2°F13.4°C 55.9°F13.3°C 99% 1.7 mph N2.7 kmh N 4.9 mph7.9 kmh 29.45 in997.3 mb 0.00 in0.0 mm 0.00 in0.0 mm 0.00 in0.0 mm
05:40 AM 56.1°F13.4°C 55.8°F13.2°C 99% 2.8 mph N4.5 kmh N 4.9 mph7.9 kmh 29.45 in997.3 mb 0.00 in0.0 mm 0.00 in0.0 mm 0.00 in0.0 mm
05:45 AM 56.1°F13.4°C 55.8°F13.2°C 99% 1.5 mph NE2.4 kmh NE 4.9 mph7.9 kmh 29.44 in997.0 mb 0.00 in0.0 mm 0.00 in0.0 mm 0.00 in0.0 mm
05:50 AM 56.1°F13.4°C 55.8°F13.2°C 99% 1.3 mph NNE2.1 kmh NNE 4.9 mph7.9 kmh 29.45 in997.3 mb 0.01 in0.3 mm 0.12 in3.0 mm 0.01 in0.3 mm
05:55 AM 55.9°F13.3°C 55.6°F13.1°C 99% 0.3 mph NW0.5 kmh NW 4.9 mph7.9 kmh 29.45 in997.3 mb 0.01 in0.3 mm 0.00 in0.0 mm 0.01 in0.3 mm
06:00 AM 55.9°F13.3°C 55.6°F13.1°C 99% 2.5 mph NNE4.0 kmh NNE 7.4 mph11.9 kmh 29.44 in997.0 mb 0.01 in0.3 mm 0.00 in0.0 mm 0.01 in0.3 mm
06:05 AM 55.9°F13.3°C 55.6°F13.1°C 99% 3.0 mph NE4.8 kmh NE 4.9 mph7.9 kmh 29.45 in997.3 mb 0.01 in0.3 mm 0.00 in0.0 mm 0.01 in0.3 mm
06:10 AM 55.9°F13.3°C 55.6°F13.1°C 99% 1.2 mph N1.9 kmh N 4.9 mph7.9 kmh 29.44 in997.0 mb 0.01 in0.3 mm 0.00 in0.0 mm 0.01 in0.3 mm
06:15 AM 55.9°F13.3°C 55.6°F13.1°C 99% 1.6 mph NE2.6 kmh NE 4.9 mph7.9 kmh 29.45 in997.3 mb 0.01 in0.3 mm 0.00 in0.0 mm 0.01 in0.3 mm
06:20 AM 55.9°F13.3°C 55.6°F13.1°C 99% 2.0 mph NNE3.2 kmh NNE 4.9 mph7.9 kmh 29.45 in997.3 mb 0.01 in0.3 mm 0.00 in0.0 mm 0.01 in0.3 mm
06:25 AM 55.9°F13.3°C 55.6°F13.1°C 99% 1.3 mph N2.1 kmh N 4.9 mph7.9 kmh 29.45 in997.3 mb 0.01 in0.3 mm 0.00 in0.0 mm 0.01 in0.3 mm
06:30 AM 55.9°F13.3°C 55.6°F13.1°C 99% 1.9 mph NE3.1 kmh NE 7.4 mph11.9 kmh 29.45 in997.3 mb 0.01 in0.3 mm 0.00 in0.0 mm 0.01 in0.3 mm
06:35 AM 55.9°F13.3°C 55.6°F13.1°C 99% 1.5 mph NE2.4 kmh NE 4.9 mph7.9 kmh 29.46 in997.6 mb 0.01 in0.3 mm 0.00 in0.0 mm 0.01 in0.3 mm
06:40 AM 55.9°F13.3°C 55.6°F13.1°C 99% 1.4 mph NE2.3 kmh NE 4.9 mph7.9 kmh 29.46 in997.6 mb 0.01 in0.3 mm 0.00 in0.0 mm 0.01 in0.3 mm
06:45 AM 55.9°F13.3°C 55.6°F13.1°C 99% 1.7 mph NE2.7 kmh NE 4.9 mph7.9 kmh 29.46 in997.6 mb 0.01 in0.3 mm 0.00 in0.0 mm 0.01 in0.3 mm
06:50 AM 55.9°F13.3°C 55.6°F13.1°C 99% 1.7 mph NE2.7 kmh NE 4.9 mph7.9 kmh 29.45 in997.3 mb 0.00 in0.0 mm 0.00 in0.0 mm 0.01 in0.3 mm
06:55 AM 55.9°F13.3°C 55.6°F13.1°C 99% 1.7 mph ENE2.7 kmh ENE 4.9 mph7.9 kmh 29.45 in997.3 mb 0.00 in0.0 mm 0.00 in0.0 mm 0.01 in0.3 mm
07:00 AM 55.9°F13.3°C 55.6°F13.1°C 99% 2.0 mph NE3.2 kmh NE 4.9 mph7.9 kmh 29.45 in997.3 mb 0.00 in0.0 mm 0.00 in0.0 mm 0.01 in0.3 mm
07:05 AM 55.9°F13.3°C 55.6°F13.1°C 99% 1.6 mph NE2.6 kmh NE 4.9 mph7.9 kmh 29.45 in997.3 mb 0.00 in0.0 mm 0.00 in0.0 mm 0.01 in0.3 mm
07:10 AM 55.9°F13.3°C 55.6°F13.1°C 99% 1.0 mph NE1.6 kmh NE 2.5 mph4.0 kmh 29.46 in997.6 mb 0.00 in0.0 mm 0.00 in0.0 mm 0.01 in0.3 mm
07:15 AM 55.9°F13.3°C 55.6°F13.1°C 99% 0.4 mph N0.6 kmh N 2.5 mph4.0 kmh 29.46 in997.6 mb 0.00 in0.0 mm 0.00 in0.0 mm 0.01 in0.3 mm
07:20 AM 55.9°F13.3°C 55.6°F13.1°C 99% 1.6 mph NE2.6 kmh NE 4.9 mph7.9 kmh 29.46 in997.6 mb 0.00 in0.0 mm 0.00 in0.0 mm 0.01 in0.3 mm
07:25 AM 55.9°F13.3°C 55.6°F13.1°C 99% 0.2 mph NE0.3 kmh NE 2.5 mph4.0 kmh 29.46 in997.6 mb 0.00 in0.0 mm 0.00 in0.0 mm 0.01 in0.3 mm
07:30 AM 56.0°F13.3°C 55.7°F13.2°C 99% 0.9 mph NNE1.4 kmh NNE 4.9 mph7.9 kmh 29.47 in998.0 mb 0.00 in0.0 mm 0.00 in0.0 mm 0.01 in0.3 mm
07:35 AM 56.1°F13.4°C 55.8°F13.2°C 99% 2.8 mph ENE4.5 kmh ENE 4.9 mph7.9 kmh 29.46 in997.6 mb 0.00 in0.0 mm 0.00 in0.0 mm 0.01 in0.3 mm
07:40 AM 56.1°F13.4°C 55.8°F13.2°C 99% 0.9 mph N1.4 kmh N 2.5 mph4.0 kmh 29.46 in997.6 mb 0.00 in0.0 mm 0.00 in0.0 mm 0.01 in0.3 mm
07:45 AM 56.1°F13.4°C 55.8°F13.2°C 99% 0.7 mph NE1.1 kmh NE 2.5 mph4.0 kmh 29.47 in998.0 mb 0.00 in0.0 mm 0.00 in0.0 mm 0.01 in0.3 mm
07:50 AM 56.1°F13.4°C 55.8°F13.2°C 99% 2.2 mph NE3.5 kmh NE 4.9 mph7.9 kmh 29.47 in998.0 mb 0.00 in0.0 mm 0.00 in0.0 mm 0.01 in0.3 mm
07:55 AM 56.1°F13.4°C 55.8°F13.2°C 99% 0.6 mph ENE1.0 kmh ENE 2.5 mph4.0 kmh 29.47 in998.0 mb 0.00 in0.0 mm 0.00 in0.0 mm 0.01 in0.3 mm
08:00 AM 56.1°F13.4°C 55.8°F13.2°C 99% 0.4 mph NE0.6 kmh NE 2.5 mph4.0 kmh 29.47 in998.0 mb 0.00 in0.0 mm 0.00 in0.0 mm 0.01 in0.3 mm
08:05 AM 56.1°F13.4°C 55.8°F13.2°C 99% 1.7 mph N2.7 kmh N 4.9 mph7.9 kmh 29.47 in998.0 mb 0.00 in0.0 mm 0.00 in0.0 mm 0.01 in0.3 mm
08:10 AM 56.3°F13.5°C 56.0°F13.3°C 99% 0.1 mph N0.2 kmh N 2.5 mph4.0 kmh 29.48 in998.3 mb 0.00 in0.0 mm 0.00 in0.0 mm 0.01 in0.3 mm
08:15 AM 56.5°F13.6°C 56.2°F13.4°C 99% 0.6 mph NE1.0 kmh NE 2.5 mph4.0 kmh 29.48 in998.3 mb 0.00 in0.0 mm 0.00 in0.0 mm 0.01 in0.3 mm
08:20 AM 56.5°F13.6°C 56.2°F13.4°C 99% 2.5 mph NE4.0 kmh NE 4.9 mph7.9 kmh 29.47 in998.0 mb 0.00 in0.0 mm 0.00 in0.0 mm 0.01 in0.3 mm
08:25 AM 56.5°F13.6°C 56.2°F13.4°C 99% 0.9 mph ENE1.4 kmh ENE 4.9 mph7.9 kmh 29.48 in998.3 mb 0.00 in0.0 mm 0.00 in0.0 mm 0.01 in0.3 mm
08:30 AM 56.5°F13.6°C 56.2°F13.4°C 99% 0.5 mph NE0.8 kmh NE 2.5 mph4.0 kmh 29.48 in998.3 mb 0.00 in0.0 mm 0.00 in0.0 mm 0.01 in0.3 mm
08:35 AM 56.5°F13.6°C 56.2°F13.4°C 99% 1.9 mph ENE3.1 kmh ENE 4.9 mph7.9 kmh 29.48 in998.3 mb 0.00 in0.0 mm 0.00 in0.0 mm 0.01 in0.3 mm
08:40 AM 56.5°F13.6°C 56.2°F13.4°C 99% 1.9 mph NE3.1 kmh NE 4.9 mph7.9 kmh 29.48 in998.3 mb 0.00 in0.0 mm 0.00 in0.0 mm 0.01 in0.3 mm
08:45 AM 56.5°F13.6°C 56.2°F13.4°C 99% 0.7 mph ENE1.1 kmh ENE 4.9 mph7.9 kmh 29.48 in998.3 mb 0.00 in0.0 mm 0.00 in0.0 mm 0.01 in0.3 mm
08:50 AM 56.5°F13.6°C 56.2°F13.4°C 99% 2.5 mph ENE4.0 kmh ENE 4.9 mph7.9 kmh 29.47 in998.0 mb 0.00 in0.0 mm 0.00 in0.0 mm 0.01 in0.3 mm
08:55 AM 56.5°F13.6°C 56.2°F13.4°C 99% 1.3 mph NE2.1 kmh NE 2.5 mph4.0 kmh 29.47 in998.0 mb 0.00 in0.0 mm 0.00 in0.0 mm 0.01 in0.3 mm
09:00 AM 56.5°F13.6°C 56.2°F13.4°C 99% 0.4 mph NNE0.6 kmh NNE 2.5 mph4.0 kmh 29.48 in998.3 mb 0.00 in0.0 mm 0.00 in0.0 mm 0.01 in0.3 mm
09:05 AM 56.5°F13.6°C 56.2°F13.4°C 99% 0.9 mph NNW1.4 kmh NNW 2.5 mph4.0 kmh 29.47 in998.0 mb 0.00 in0.0 mm 0.00 in0.0 mm 0.01 in0.3 mm
09:10 AM 56.5°F13.6°C 56.2°F13.4°C 99% 2.8 mph NE4.5 kmh NE 4.9 mph7.9 kmh 29.48 in998.3 mb 0.00 in0.0 mm 0.00 in0.0 mm 0.01 in0.3 mm
09:15 AM 56.5°F13.6°C 56.2°F13.4°C 99% 1.9 mph NE3.1 kmh NE 4.9 mph7.9 kmh 29.48 in998.3 mb 0.00 in0.0 mm 0.00 in0.0 mm 0.01 in0.3 mm
09:20 AM 56.5°F13.6°C 56.2°F13.4°C 99% 0.9 mph NE1.4 kmh NE 2.5 mph4.0 kmh 29.48 in998.3 mb 0.00 in0.0 mm 0.00 in0.0 mm 0.01 in0.3 mm
09:25 AM 56.5°F13.6°C 56.2°F13.4°C 99% 0.6 mph NNW1.0 kmh NNW 2.5 mph4.0 kmh 29.48 in998.3 mb 0.00 in0.0 mm 0.00 in0.0 mm 0.01 in0.3 mm
09:30 AM 56.5°F13.6°C 56.3°F13.5°C 99% 1.1 mph NNE1.8 kmh NNE 4.9 mph7.9 kmh 29.48 in998.3 mb 0.00 in0.0 mm 0.00 in0.0 mm 0.01 in0.3 mm
09:35 AM 56.5°F13.6°C 56.2°F13.4°C 99% 1.7 mph NE2.7 kmh NE 4.9 mph7.9 kmh 29.48 in998.3 mb 0.00 in0.0 mm 0.00 in0.0 mm 0.01 in0.3 mm
09:40 AM 56.5°F13.6°C 56.2°F13.4°C 99% 0.7 mph NE1.1 kmh NE 2.5 mph4.0 kmh 29.48 in998.3 mb 0.00 in0.0 mm 0.00 in0.0 mm 0.01 in0.3 mm
09:45 AM 56.5°F13.6°C 56.2°F13.4°C 99% 1.5 mph NE2.4 kmh NE 4.9 mph7.9 kmh 29.48 in998.3 mb 0.00 in0.0 mm 0.00 in0.0 mm 0.01 in0.3 mm
09:50 AM 56.5°F13.6°C 56.2°F13.4°C 99% 0.1 mph N0.2 kmh N 2.5 mph4.0 kmh 29.47 in998.0 mb 0.00 in0.0 mm 0.00 in0.0 mm 0.01 in0.3 mm
09:55 AM 56.5°F13.6°C 56.2°F13.4°C 99% 2.2 mph NE3.5 kmh NE 7.4 mph11.9 kmh 29.47 in998.0 mb 0.00 in0.0 mm 0.00 in0.0 mm 0.01 in0.3 mm
10:00 AM 56.5°F13.6°C 56.2°F13.4°C 99% 2.6 mph NE4.2 kmh NE 7.4 mph11.9 kmh 29.47 in998.0 mb 0.00 in0.0 mm 0.00 in0.0 mm 0.01 in0.3 mm
10:05 AM 56.5°F13.6°C 56.2°F13.4°C 99% 0.3 mph ENE0.5 kmh ENE 2.5 mph4.0 kmh 29.48 in998.3 mb 0.00 in0.0 mm 0.00 in0.0 mm 0.01 in0.3 mm
10:10 AM 56.5°F13.6°C 56.2°F13.4°C 99% 1.7 mph E2.7 kmh E 4.9 mph7.9 kmh 29.48 in998.3 mb 0.00 in0.0 mm 0.00 in0.0 mm 0.01 in0.3 mm
10:15 AM 56.5°F13.6°C 56.2°F13.4°C 99% 1.5 mph NNE2.4 kmh NNE 4.9 mph7.9 kmh 29.48 in998.3 mb 0.00 in0.0 mm 0.00 in0.0 mm 0.01 in0.3 mm
10:20 AM 56.5°F13.6°C 56.2°F13.4°C 99% 1.1 mph NNE1.8 kmh NNE 2.5 mph4.0 kmh 29.48 in998.3 mb 0.00 in0.0 mm 0.00 in0.0 mm 0.01 in0.3 mm
10:25 AM 56.5°F13.6°C 56.2°F13.4°C 99% 1.2 mph N1.9 kmh N 2.5 mph4.0 kmh 29.49 in998.6 mb 0.00 in0.0 mm 0.00 in0.0 mm 0.01 in0.3 mm
10:30 AM 56.5°F13.6°C 56.2°F13.4°C 99% 0.8 mph E1.3 kmh E 2.5 mph4.0 kmh 29.48 in998.3 mb 0.00 in0.0 mm 0.00 in0.0 mm 0.01 in0.3 mm
10:35 AM 56.7°F13.7°C 56.4°F13.6°C 99% 0.4 mph NE0.6 kmh NE 2.5 mph4.0 kmh 29.48 in998.3 mb 0.00 in0.0 mm 0.00 in0.0 mm 0.01 in0.3 mm
10:40 AM 56.7°F13.7°C 56.4°F13.6°C 99% 0.6 mph ESE1.0 kmh ESE 2.5 mph4.0 kmh 29.49 in998.6 mb 0.00 in0.0 mm 0.00 in0.0 mm 0.01 in0.3 mm
10:45 AM 56.7°F13.7°C 56.4°F13.6°C 99% 0.2 mph N0.3 kmh N 2.5 mph4.0 kmh 29.48 in998.3 mb 0.00 in0.0 mm 0.00 in0.0 mm 0.01 in0.3 mm
10:50 AM 56.7°F13.7°C 56.4°F13.6°C 99% 0.1 mph NNW0.2 kmh NNW 2.5 mph4.0 kmh 29.48 in998.3 mb 0.00 in0.0 mm 0.00 in0.0 mm 0.01 in0.3 mm
10:55 AM 57.0°F13.9°C 56.7°F13.7°C 99% 1.3 mph NNE2.1 kmh NNE 4.9 mph7.9 kmh 29.48 in998.3 mb 0.00 in0.0 mm 0.00 in0.0 mm 0.01 in0.3 mm
11:00 AM 57.0°F13.9°C 56.7°F13.7°C 99% 1.9 mph NE3.1 kmh NE 4.9 mph7.9 kmh 29.48 in998.3 mb 0.00 in0.0 mm 0.00 in0.0 mm 0.01 in0.3 mm
11:05 AM 57.0°F13.9°C 56.7°F13.7°C 99% 0.6 mph N1.0 kmh N 2.5 mph4.0 kmh 29.48 in998.3 mb 0.00 in0.0 mm 0.00 in0.0 mm 0.01 in0.3 mm
11:10 AM 57.0°F13.9°C 56.7°F13.7°C 99% 0.9 mph N1.4 kmh N 2.5 mph4.0 kmh 29.47 in998.0 mb 0.00 in0.0 mm 0.00 in0.0 mm 0.01 in0.3 mm
11:15 AM 57.0°F13.9°C 56.7°F13.7°C 99% 0.9 mph NNW1.4 kmh NNW 4.9 mph7.9 kmh 29.48 in998.3 mb 0.00 in0.0 mm 0.00 in0.0 mm 0.01 in0.3 mm
11:20 AM 56.8°F13.8°C 56.5°F13.6°C 99% 0.4 mph NE0.6 kmh NE 2.5 mph4.0 kmh 29.47 in998.0 mb 0.00 in0.0 mm 0.00 in0.0 mm 0.01 in0.3 mm
11:25 AM 56.8°F13.8°C 56.5°F13.6°C 99% 1.7 mph NE2.7 kmh NE 4.9 mph7.9 kmh 29.47 in998.0 mb 0.00 in0.0 mm 0.00 in0.0 mm 0.01 in0.3 mm
11:30 AM 56.8°F13.8°C 56.5°F13.6°C 99% 1.2 mph NE1.9 kmh NE 7.4 mph11.9 kmh 29.47 in998.0 mb 0.00 in0.0 mm 0.00 in0.0 mm 0.01 in0.3 mm
11:35 AM 56.7°F13.7°C 56.4°F13.6°C 99% 0.8 mph N1.3 kmh N 2.5 mph4.0 kmh 29.46 in997.6 mb 0.03 in0.8 mm 0.36 in9.1 mm 0.04 in1.0 mm
11:40 AM 56.7°F13.7°C 56.4°F13.6°C 99% Calm Calm 2.5 mph4.0 kmh 29.47 in998.0 mb 0.06 in1.5 mm 0.36 in9.1 mm 0.07 in1.8 mm
11:45 AM 56.7°F13.7°C 56.4°F13.6°C 99% 0.5 mph E0.8 kmh E 2.5 mph4.0 kmh 29.47 in998.0 mb 0.07 in1.8 mm 0.12 in3.0 mm 0.08 in2.0 mm
11:50 AM 56.7°F13.7°C 56.4°F13.6°C 99% 0.6 mph N1.0 kmh N 4.9 mph7.9 kmh 29.46 in997.6 mb 0.07 in1.8 mm 0.00 in0.0 mm 0.08 in2.0 mm
11:55 AM 56.8°F13.8°C 56.5°F13.6°C 99% 0.6 mph N1.0 kmh N 2.5 mph4.0 kmh 29.46 in997.6 mb 0.07 in1.8 mm 0.00 in0.0 mm 0.08 in2.0 mm
12:00 PM 56.8°F13.8°C 56.5°F13.6°C 99% 2.6 mph NNW4.2 kmh NNW 4.9 mph7.9 kmh 29.46 in997.6 mb 0.07 in1.8 mm 0.00 in0.0 mm 0.08 in2.0 mm
12:05 PM 56.8°F13.8°C 56.5°F13.6°C 99% 0.9 mph 1.4 kmh 4.9 mph7.9 kmh 29.46 in997.6 mb 0.07 in1.8 mm 0.00 in0.0 mm 0.08 in2.0 mm
12:10 PM 56.8°F13.8°C 56.5°F13.6°C 99% 1.4 mph N2.3 kmh N 2.5 mph4.0 kmh 29.45 in997.3 mb 0.07 in1.8 mm 0.00 in0.0 mm 0.08 in2.0 mm
12:15 PM 56.9°F13.8°C 56.6°F13.7°C 99% 0.3 mph N0.5 kmh N 2.5 mph4.0 kmh 29.46 in997.6 mb 0.07 in1.8 mm 0.00 in0.0 mm 0.08 in2.0 mm
12:20 PM 57.0°F13.9°C 56.7°F13.7°C 99% 0.5 mph NE0.8 kmh NE 4.9 mph7.9 kmh 29.45 in997.3 mb 0.07 in1.8 mm 0.00 in0.0 mm 0.08 in2.0 mm
12:25 PM 57.0°F13.9°C 56.7°F13.7°C 99% 0.3 mph NNE0.5 kmh NNE 2.5 mph4.0 kmh 29.45 in997.3 mb 0.07 in1.8 mm 0.00 in0.0 mm 0.08 in2.0 mm
12:30 PM 57.0°F13.9°C 56.7°F13.7°C 99% 0.4 mph N0.6 kmh N 2.5 mph4.0 kmh 29.44 in997.0 mb 0.07 in1.8 mm 0.00 in0.0 mm 0.08 in2.0 mm
12:35 PM 57.0°F13.9°C 56.7°F13.7°C 99% 1.3 mph NNW2.1 kmh NNW 2.5 mph4.0 kmh 29.44 in997.0 mb 0.04 in1.0 mm 0.00 in0.0 mm 0.08 in2.0 mm
12:40 PM 56.8°F13.8°C 56.6°F13.7°C 99% 0.5 mph N0.8 kmh N 2.5 mph4.0 kmh 29.44 in997.0 mb 0.01 in0.3 mm 0.00 in0.0 mm 0.08 in2.0 mm
12:45 PM 56.8°F13.8°C 56.5°F13.6°C 99% 1.6 mph NNW2.6 kmh NNW 4.9 mph7.9 kmh 29.44 in997.0 mb 0.00 in0.0 mm 0.00 in0.0 mm 0.08 in2.0 mm
12:50 PM 56.8°F13.8°C 56.5°F13.6°C 99% 2.1 mph NNW3.4 kmh NNW 4.9 mph7.9 kmh 29.44 in997.0 mb 0.00 in0.0 mm 0.00 in0.0 mm 0.08 in2.0 mm
12:55 PM 56.9°F13.8°C 56.6°F13.7°C 99% 0.4 mph NNW0.6 kmh NNW 2.5 mph4.0 kmh 29.43 in996.6 mb 0.01 in0.3 mm 0.12 in3.0 mm 0.09 in2.3 mm
01:00 PM 57.0°F13.9°C 56.7°F13.7°C 99% 0.8 mph N1.3 kmh N 2.5 mph4.0 kmh 29.43 in996.6 mb 0.01 in0.3 mm 0.00 in0.0 mm 0.09 in2.3 mm
01:05 PM 57.0°F13.9°C 56.7°F13.7°C 99% 0.6 mph N1.0 kmh N 2.5 mph4.0 kmh 29.43 in996.6 mb 0.01 in0.3 mm 0.00 in0.0 mm 0.09 in2.3 mm
01:10 PM 57.0°F13.9°C 56.7°F13.7°C 99% 0.7 mph NW1.1 kmh NW 2.5 mph4.0 kmh 29.42 in996.3 mb 0.01 in0.3 mm 0.00 in0.0 mm 0.09 in2.3 mm
01:15 PM 57.0°F13.9°C 56.7°F13.7°C 99% 2.7 mph N4.3 kmh N 4.9 mph7.9 kmh 29.42 in996.3 mb 0.01 in0.3 mm 0.00 in0.0 mm 0.09 in2.3 mm
01:20 PM 57.0°F13.9°C 56.7°F13.7°C 99% 1.6 mph NNW2.6 kmh NNW 4.9 mph7.9 kmh 29.42 in996.3 mb 0.01 in0.3 mm 0.00 in0.0 mm 0.09 in2.3 mm
01:25 PM 57.0°F13.9°C 56.7°F13.7°C 99% Calm Calm 2.5 mph4.0 kmh 29.42 in996.3 mb 0.01 in0.3 mm 0.00 in0.0 mm 0.09 in2.3 mm
01:30 PM 57.0°F13.9°C 56.7°F13.7°C 99% 1.6 mph NNE2.6 kmh NNE 4.9 mph7.9 kmh 29.42 in996.3 mb 0.01 in0.3 mm 0.00 in0.0 mm 0.09 in2.3 mm
01:35 PM 57.0°F13.9°C 56.7°F13.7°C 99% 1.7 mph NE2.7 kmh NE 2.5 mph4.0 kmh 29.42 in996.3 mb 0.01 in0.3 mm 0.00 in0.0 mm 0.09 in2.3 mm
01:40 PM 57.0°F13.9°C 56.7°F13.7°C 99% 1.3 mph NNW2.1 kmh NNW 4.9 mph7.9 kmh 29.42 in996.3 mb 0.01 in0.3 mm 0.00 in0.0 mm 0.09 in2.3 mm
01:45 PM 57.0°F13.9°C 56.7°F13.7°C 99% Calm Calm 2.5 mph4.0 kmh 29.42 in996.3 mb 0.01 in0.3 mm 0.00 in0.0 mm 0.09 in2.3 mm
01:50 PM 57.0°F13.9°C 56.7°F13.7°C 99% 0.2 mph ENE0.3 kmh ENE 2.5 mph4.0 kmh 29.42 in996.3 mb 0.01 in0.3 mm 0.00 in0.0 mm 0.09 in2.3 mm
01:55 PM 57.0°F13.9°C 56.7°F13.7°C 99% 0.1 mph N0.2 kmh N 2.5 mph4.0 kmh 29.41 in995.9 mb 0.00 in0.0 mm 0.00 in0.0 mm 0.09 in2.3 mm
02:00 PM 57.0°F13.9°C 56.7°F13.7°C 99% Calm Calm -- 29.41 in995.9 mb 0.00 in0.0 mm 0.00 in0.0 mm 0.09 in2.3 mm
02:05 PM 57.0°F13.9°C 56.7°F13.7°C 99% 0.1 mph NE0.2 kmh NE 2.5 mph4.0 kmh 29.41 in995.9 mb 0.00 in0.0 mm 0.00 in0.0 mm 0.09 in2.3 mm
02:10 PM 57.0°F13.9°C 56.7°F13.7°C 99% 0.8 mph NNE1.3 kmh NNE 4.9 mph7.9 kmh 29.41 in995.9 mb 0.00 in0.0 mm 0.00 in0.0 mm 0.09 in2.3 mm
02:15 PM 57.0°F13.9°C 56.7°F13.7°C 99% Calm Calm -- 29.41 in995.9 mb 0.00 in0.0 mm 0.00 in0.0 mm 0.09 in2.3 mm
02:20 PM 56.9°F13.8°C 56.6°F13.7°C 99% 0.6 mph N1.0 kmh N 2.5 mph4.0 kmh 29.41 in995.9 mb 0.00 in0.0 mm 0.00 in0.0 mm 0.09 in2.3 mm
02:25 PM 56.8°F13.8°C 56.5°F13.6°C 99% 0.1 mph NW0.2 kmh NW 2.5 mph4.0 kmh 29.41 in995.9 mb 0.00 in0.0 mm 0.00 in0.0 mm 0.09 in2.3 mm
02:30 PM 56.8°F13.8°C 56.5°F13.6°C 99% 1.6 mph NNW2.6 kmh NNW 4.9 mph7.9 kmh 29.41 in995.9 mb 0.00 in0.0 mm 0.00 in0.0 mm 0.09 in2.3 mm
02:35 PM 56.8°F13.8°C 56.5°F13.6°C 99% Calm Calm 2.5 mph4.0 kmh 29.41 in995.9 mb 0.00 in0.0 mm 0.00 in0.0 mm 0.09 in2.3 mm
02:40 PM 56.8°F13.8°C 56.5°F13.6°C 99% 0.8 mph N1.3 kmh N 4.9 mph7.9 kmh 29.41 in995.9 mb 0.00 in0.0 mm 0.00 in0.0 mm 0.09 in2.3 mm
02:45 PM 56.8°F13.8°C 56.5°F13.6°C 99% Calm Calm -- 29.41 in995.9 mb 0.00 in0.0 mm 0.00 in0.0 mm 0.09 in2.3 mm
02:50 PM 56.8°F13.8°C 56.5°F13.6°C 99% 0.4 mph NNW0.6 kmh NNW 2.5 mph4.0 kmh 29.41 in995.9 mb 0.00 in0.0 mm 0.00 in0.0 mm 0.09 in2.3 mm
02:55 PM 56.8°F13.8°C 56.5°F13.6°C 99% 0.4 mph ENE0.6 kmh ENE 2.5 mph4.0 kmh 29.41 in995.9 mb 0.00 in0.0 mm 0.00 in0.0 mm 0.09 in2.3 mm
03:00 PM 56.8°F13.8°C 56.5°F13.6°C 99% 0.8 mph NE1.3 kmh NE 2.5 mph4.0 kmh 29.41 in995.9 mb 0.00 in0.0 mm 0.00 in0.0 mm 0.09 in2.3 mm
03:05 PM 56.8°F13.8°C 56.5°F13.6°C 99% 0.6 mph NNE1.0 kmh NNE 2.5 mph4.0 kmh 29.41 in995.9 mb 0.00 in0.0 mm 0.00 in0.0 mm 0.09 in2.3 mm
03:10 PM 56.8°F13.8°C 56.5°F13.6°C 99% 0.6 mph N1.0 kmh N 2.5 mph4.0 kmh 29.41 in995.9 mb 0.00 in0.0 mm 0.00 in0.0 mm 0.09 in2.3 mm
03:15 PM 56.8°F13.8°C 56.5°F13.6°C 99% 1.3 mph NW2.1 kmh NW 2.5 mph4.0 kmh 29.41 in995.9 mb 0.00 in0.0 mm 0.00 in0.0 mm 0.09 in2.3 mm
03:20 PM 56.8°F13.8°C 56.5°F13.6°C 99% 1.6 mph NNW2.6 kmh NNW 7.4 mph11.9 kmh 29.41 in995.9 mb 0.00 in0.0 mm 0.00 in0.0 mm 0.09 in2.3 mm
03:25 PM 56.8°F13.8°C 56.5°F13.6°C 99% 0.6 mph N1.0 kmh N 2.5 mph4.0 kmh 29.40 in995.6 mb 0.00 in0.0 mm 0.00 in0.0 mm 0.09 in2.3 mm
03:30 PM 56.8°F13.8°C 56.5°F13.6°C 99% 1.6 mph N2.6 kmh N 4.9 mph7.9 kmh 29.40 in995.6 mb 0.00 in0.0 mm 0.00 in0.0 mm 0.09 in2.3 mm
03:35 PM 56.8°F13.8°C 56.5°F13.6°C 99% 2.0 mph N3.2 kmh N 4.9 mph7.9 kmh 29.41 in995.9 mb 0.00 in0.0 mm 0.00 in0.0 mm 0.09 in2.3 mm
03:40 PM 56.8°F13.8°C 56.5°F13.6°C 99% 0.9 mph N1.4 kmh N 2.5 mph4.0 kmh 29.40 in995.6 mb 0.00 in0.0 mm 0.00 in0.0 mm 0.09 in2.3 mm
03:45 PM 56.8°F13.8°C 56.5°F13.6°C 99% 1.2 mph N1.9 kmh N 2.5 mph4.0 kmh 29.40 in995.6 mb 0.00 in0.0 mm 0.00 in0.0 mm 0.09 in2.3 mm
03:50 PM 56.8°F13.8°C 56.5°F13.6°C 99% 1.0 mph NNE1.6 kmh NNE 4.9 mph7.9 kmh 29.41 in995.9 mb 0.00 in0.0 mm 0.00 in0.0 mm 0.09 in2.3 mm
03:55 PM 56.8°F13.8°C 56.5°F13.6°C 99% 1.2 mph N1.9 kmh N 4.9 mph7.9 kmh 29.40 in995.6 mb 0.00 in0.0 mm 0.00 in0.0 mm 0.09 in2.3 mm
04:00 PM 56.8°F13.8°C 56.5°F13.6°C 99% 1.6 mph N2.6 kmh N 4.9 mph7.9 kmh 29.41 in995.9 mb 0.00 in0.0 mm 0.00 in0.0 mm 0.09 in2.3 mm
04:05 PM 56.8°F13.8°C 56.5°F13.6°C 99% 0.6 mph N1.0 kmh N 2.5 mph4.0 kmh 29.41 in995.9 mb 0.00 in0.0 mm 0.00 in0.0 mm 0.09 in2.3 mm
04:10 PM 56.8°F13.8°C 56.5°F13.6°C 99% 0.6 mph NW1.0 kmh NW 2.5 mph4.0 kmh 29.41 in995.9 mb 0.00 in0.0 mm 0.00 in0.0 mm 0.09 in2.3 mm
04:15 PM 56.8°F13.8°C 56.5°F13.6°C 99% 1.5 mph NNW2.4 kmh NNW 9.8 mph15.8 kmh 29.41 in995.9 mb 0.00 in0.0 mm 0.00 in0.0 mm 0.09 in2.3 mm
04:20 PM 56.8°F13.8°C 56.5°F13.6°C 99% 1.7 mph N2.7 kmh N 4.9 mph7.9 kmh 29.41 in995.9 mb 0.00 in0.0 mm 0.00 in0.0 mm 0.09 in2.3 mm
04:25 PM 56.8°F13.8°C 56.5°F13.6°C 99% 1.8 mph NNW2.9 kmh NNW 4.9 mph7.9 kmh 29.41 in995.9 mb 0.00 in0.0 mm 0.00 in0.0 mm 0.09 in2.3 mm
04:30 PM 56.7°F13.7°C 56.4°F13.6°C 99% 1.6 mph NNW2.6 kmh NNW 4.9 mph7.9 kmh 29.41 in995.9 mb 0.00 in0.0 mm 0.00 in0.0 mm 0.09 in2.3 mm
04:35 PM 56.7°F13.7°C 56.4°F13.6°C 99% 0.7 mph NW1.1 kmh NW 2.5 mph4.0 kmh 29.41 in995.9 mb 0.00 in0.0 mm 0.00 in0.0 mm 0.09 in2.3 mm
04:40 PM 56.7°F13.7°C 56.4°F13.6°C 99% 1.1 mph NW1.8 kmh NW 2.5 mph4.0 kmh 29.41 in995.9 mb 0.00 in0.0 mm 0.00 in0.0 mm 0.09 in2.3 mm
04:45 PM 56.7°F13.7°C 56.4°F13.6°C 99% 1.6 mph NNW2.6 kmh NNW 2.5 mph4.0 kmh 29.41 in995.9 mb 0.00 in0.0 mm 0.00 in0.0 mm 0.09 in2.3 mm
04:50 PM 56.7°F13.7°C 56.4°F13.6°C 99% 1.6 mph N2.6 kmh N 4.9 mph7.9 kmh 29.42 in996.3 mb 0.00 in0.0 mm 0.00 in0.0 mm 0.09 in2.3 mm
04:55 PM 56.7°F13.7°C 56.4°F13.6°C 99% 0.8 mph NW1.3 kmh NW 4.9 mph7.9 kmh 29.41 in995.9 mb 0.00 in0.0 mm 0.00 in0.0 mm 0.09 in2.3 mm
05:00 PM 56.7°F13.7°C 56.4°F13.6°C 99% 2.6 mph N4.2 kmh N 4.9 mph7.9 kmh 29.41 in995.9 mb 0.00 in0.0 mm 0.00 in0.0 mm 0.09 in2.3 mm
05:05 PM 56.7°F13.7°C 56.4°F13.6°C 99% 1.7 mph NNW2.7 kmh NNW 4.9 mph7.9 kmh 29.42 in996.3 mb 0.00 in0.0 mm 0.00 in0.0 mm 0.09 in2.3 mm
05:10 PM 56.6°F13.7°C 56.3°F13.5°C 99% 3.4 mph NW5.5 kmh NW 7.4 mph11.9 kmh 29.41 in995.9 mb 0.00 in0.0 mm 0.00 in0.0 mm 0.09 in2.3 mm
05:15 PM 56.5°F13.6°C 56.2°F13.4°C 99% 1.0 mph NNW1.6 kmh NNW 2.5 mph4.0 kmh 29.41 in995.9 mb 0.00 in0.0 mm 0.00 in0.0 mm 0.09 in2.3 mm
05:20 PM 56.4°F13.6°C 56.1°F13.4°C 99% 2.0 mph N3.2 kmh N 4.9 mph7.9 kmh 29.42 in996.3 mb 0.00 in0.0 mm 0.00 in0.0 mm 0.09 in2.3 mm
05:25 PM 56.3°F13.5°C 56.0°F13.3°C 99% 1.2 mph N1.9 kmh N 4.9 mph7.9 kmh 29.42 in996.3 mb 0.00 in0.0 mm 0.00 in0.0 mm 0.09 in2.3 mm
05:30 PM 56.3°F13.5°C 56.0°F13.3°C 99% 2.1 mph N3.4 kmh N 4.9 mph7.9 kmh 29.42 in996.3 mb 0.00 in0.0 mm 0.00 in0.0 mm 0.09 in2.3 mm
05:35 PM 56.3°F13.5°C 56.0°F13.3°C 99% 1.4 mph NW2.3 kmh NW 2.5 mph4.0 kmh 29.43 in996.6 mb 0.00 in0.0 mm 0.00 in0.0 mm 0.09 in2.3 mm
05:40 PM 56.5°F13.6°C 56.2°F13.4°C 99% 1.4 mph NW2.3 kmh NW 2.5 mph4.0 kmh 29.43 in996.6 mb 0.00 in0.0 mm 0.00 in0.0 mm 0.09 in2.3 mm
05:45 PM 56.5°F13.6°C 56.2°F13.4°C 99% 2.2 mph NNW3.5 kmh NNW 4.9 mph7.9 kmh 29.44 in997.0 mb 0.00 in0.0 mm 0.00 in0.0 mm 0.09 in2.3 mm
05:50 PM 56.5°F13.6°C 56.2°F13.4°C 99% 0.4 mph NW0.6 kmh NW 2.5 mph4.0 kmh 29.43 in996.6 mb 0.00 in0.0 mm 0.00 in0.0 mm 0.09 in2.3 mm
05:55 PM 56.5°F13.6°C 56.2°F13.4°C 99% Calm Calm 2.5 mph4.0 kmh 29.44 in997.0 mb 0.00 in0.0 mm 0.00 in0.0 mm 0.09 in2.3 mm
06:00 PM 56.3°F13.5°C 56.1°F13.4°C 99% 1.7 mph N2.7 kmh N 7.4 mph11.9 kmh 29.43 in996.6 mb 0.00 in0.0 mm 0.00 in0.0 mm 0.09 in2.3 mm
06:05 PM 56.3°F13.5°C 56.0°F13.3°C 99% 0.6 mph N1.0 kmh N 2.5 mph4.0 kmh 29.43 in996.6 mb 0.00 in0.0 mm 0.00 in0.0 mm 0.09 in2.3 mm
06:10 PM 56.3°F13.5°C 56.0°F13.3°C 99% 1.9 mph NNW3.1 kmh NNW 4.9 mph7.9 kmh 29.44 in997.0 mb 0.00 in0.0 mm 0.00 in0.0 mm 0.09 in2.3 mm
06:15 PM 56.3°F13.5°C 56.0°F13.3°C 99% 1.9 mph N3.1 kmh N 4.9 mph7.9 kmh 29.43 in996.6 mb 0.00 in0.0 mm 0.00 in0.0 mm 0.09 in2.3 mm
06:20 PM 56.1°F13.4°C 55.8°F13.2°C 99% 2.6 mph N4.2 kmh N 4.9 mph7.9 kmh 29.43 in996.6 mb 0.00 in0.0 mm 0.00 in0.0 mm 0.09 in2.3 mm
06:25 PM 55.9°F13.3°C 55.6°F13.1°C 99% 2.1 mph NW3.4 kmh NW 4.9 mph7.9 kmh 29.44 in997.0 mb 0.00 in0.0 mm 0.00 in0.0 mm 0.09 in2.3 mm
06:30 PM 55.9°F13.3°C 55.6°F13.1°C 99% 1.3 mph NW2.1 kmh NW 4.9 mph7.9 kmh 29.44 in997.0 mb 0.00 in0.0 mm 0.00 in0.0 mm 0.09 in2.3 mm
06:35 PM 55.9°F13.3°C 55.6°F13.1°C 99% 1.2 mph N1.9 kmh N 4.9 mph7.9 kmh 29.44 in997.0 mb 0.00 in0.0 mm 0.00 in0.0 mm 0.09 in2.3 mm
06:40 PM 56.0°F13.3°C 55.7°F13.2°C 99% 0.5 mph NW0.8 kmh NW 2.5 mph4.0 kmh 29.45 in997.3 mb 0.00 in0.0 mm 0.00 in0.0 mm 0.09 in2.3 mm
06:45 PM 56.1°F13.4°C 55.8°F13.2°C 99% 0.5 mph NE0.8 kmh NE 2.5 mph4.0 kmh 29.45 in997.3 mb 0.00 in0.0 mm 0.00 in0.0 mm 0.09 in2.3 mm
06:50 PM 56.1°F13.4°C 55.8°F13.2°C 99% 0.5 mph NW0.8 kmh NW 2.5 mph4.0 kmh 29.45 in997.3 mb 0.02 in0.5 mm 0.24 in6.1 mm 0.11 in2.8 mm
06:55 PM 56.1°F13.4°C 55.8°F13.2°C 99% 2.0 mph NNE3.2 kmh NNE 4.9 mph7.9 kmh 29.46 in997.6 mb 0.02 in0.5 mm 0.00 in0.0 mm 0.11 in2.8 mm
07:00 PM 56.1°F13.4°C 55.8°F13.2°C 99% 1.2 mph N1.9 kmh N 2.5 mph4.0 kmh 29.45 in997.3 mb 0.03 in0.8 mm 0.01 in0.3 mm 0.12 in3.0 mm
07:05 PM 56.1°F13.4°C 55.8°F13.2°C 99% 1.2 mph NW1.9 kmh NW 2.5 mph4.0 kmh 29.45 in997.3 mb 0.11 in2.8 mm 0.96 in24.4 mm 0.20 in5.1 mm
07:10 PM 56.1°F13.4°C 55.8°F13.2°C 99% 3.2 mph N5.1 kmh N 7.4 mph11.9 kmh 29.46 in997.6 mb 0.12 in3.0 mm 0.12 in3.0 mm 0.21 in5.3 mm
07:15 PM 56.1°F13.4°C 55.8°F13.2°C 99% 1.7 mph N2.7 kmh N 4.9 mph7.9 kmh 29.45 in997.3 mb 0.12 in3.0 mm 0.00 in0.0 mm 0.21 in5.3 mm
07:20 PM 56.1°F13.4°C 55.8°F13.2°C 99% 0.8 mph NW1.3 kmh NW 7.4 mph11.9 kmh 29.46 in997.6 mb 0.12 in3.0 mm 0.00 in0.0 mm 0.21 in5.3 mm
07:25 PM 56.0°F13.3°C 55.7°F13.2°C 99% 1.9 mph NW3.1 kmh NW 7.4 mph11.9 kmh 29.46 in997.6 mb 0.12 in3.0 mm 0.00 in0.0 mm 0.21 in5.3 mm
07:30 PM 55.9°F13.3°C 55.6°F13.1°C 99% 0.9 mph NE1.4 kmh NE 2.5 mph4.0 kmh 29.46 in997.6 mb 0.12 in3.0 mm 0.00 in0.0 mm 0.21 in5.3 mm
07:35 PM 55.9°F13.3°C 55.6°F13.1°C 99% 0.8 mph NNW1.3 kmh NNW 4.9 mph7.9 kmh 29.46 in997.6 mb 0.12 in3.0 mm 0.00 in0.0 mm 0.21 in5.3 mm
07:40 PM 56.0°F13.3°C 55.7°F13.2°C 99% 3.1 mph NNW5.0 kmh NNW 4.9 mph7.9 kmh 29.47 in998.0 mb 0.12 in3.0 mm 0.00 in0.0 mm 0.21 in5.3 mm
07:45 PM 56.1°F13.4°C 55.8°F13.2°C 99% 1.0 mph NW1.6 kmh NW 2.5 mph4.0 kmh 29.48 in998.3 mb 0.12 in3.0 mm 0.00 in0.0 mm 0.21 in5.3 mm
07:50 PM 56.1°F13.4°C 55.8°F13.2°C 99% 2.8 mph NW4.5 kmh NW 4.9 mph7.9 kmh 29.48 in998.3 mb 0.10 in2.5 mm 0.00 in0.0 mm 0.21 in5.3 mm
07:55 PM 56.1°F13.4°C 55.8°F13.2°C 99% 1.6 mph NW2.6 kmh NW 4.9 mph7.9 kmh 29.48 in998.3 mb 0.10 in2.5 mm 0.00 in0.0 mm 0.21 in5.3 mm
08:00 PM 56.1°F13.4°C 55.9°F13.3°C 99% 1.7 mph N2.7 kmh N 4.9 mph7.9 kmh 29.48 in998.3 mb 0.09 in2.3 mm 0.00 in0.0 mm 0.21 in5.3 mm
08:05 PM 56.1°F13.4°C 55.8°F13.2°C 99% 1.7 mph NW2.7 kmh NW 4.9 mph7.9 kmh 29.47 in998.0 mb 0.01 in0.3 mm 0.00 in0.0 mm 0.21 in5.3 mm
08:10 PM 56.1°F13.4°C 55.8°F13.2°C 99% 1.4 mph NNW2.3 kmh NNW 9.8 mph15.8 kmh 29.48 in998.3 mb 0.00 in0.0 mm 0.00 in0.0 mm 0.21 in5.3 mm
08:15 PM 56.1°F13.4°C 55.8°F13.2°C 99% 1.6 mph NNW2.6 kmh NNW 4.9 mph7.9 kmh 29.48 in998.3 mb 0.00 in0.0 mm 0.00 in0.0 mm 0.21 in5.3 mm
08:20 PM 56.0°F13.3°C 55.7°F13.2°C 99% 2.2 mph N3.5 kmh N 4.9 mph7.9 kmh 29.47 in998.0 mb 0.00 in0.0 mm 0.00 in0.0 mm 0.21 in5.3 mm
08:25 PM 55.8°F13.2°C 55.5°F13.1°C 99% 2.8 mph NW4.5 kmh NW 7.4 mph11.9 kmh 29.48 in998.3 mb 0.00 in0.0 mm 0.00 in0.0 mm 0.21 in5.3 mm
08:30 PM 55.8°F13.2°C 55.5°F13.1°C 99% 1.2 mph N1.9 kmh N 4.9 mph7.9 kmh 29.48 in998.3 mb 0.00 in0.0 mm 0.00 in0.0 mm 0.21 in5.3 mm
08:35 PM 55.8°F13.2°C 55.5°F13.1°C 99% 1.3 mph NNW2.1 kmh NNW 4.9 mph7.9 kmh 29.48 in998.3 mb 0.00 in0.0 mm 0.00 in0.0 mm 0.21 in5.3 mm
08:40 PM 55.8°F13.2°C 55.5°F13.1°C 99% 2.3 mph N3.7 kmh N 4.9 mph7.9 kmh 29.48 in998.3 mb 0.00 in0.0 mm 0.00 in0.0 mm 0.21 in5.3 mm
08:45 PM 55.9°F13.3°C 55.6°F13.1°C 99% 1.9 mph N3.1 kmh N 4.9 mph7.9 kmh 29.48 in998.3 mb 0.00 in0.0 mm 0.00 in0.0 mm 0.21 in5.3 mm
08:50 PM 55.9°F13.3°C 55.6°F13.1°C 99% 0.9 mph NW1.4 kmh NW 2.5 mph4.0 kmh 29.48 in998.3 mb 0.00 in0.0 mm 0.00 in0.0 mm 0.21 in5.3 mm
08:55 PM 55.9°F13.3°C 55.6°F13.1°C 99% 3.7 mph NNW6.0 kmh NNW 7.4 mph11.9 kmh 29.49 in998.6 mb 0.00 in0.0 mm 0.00 in0.0 mm 0.21 in5.3 mm
09:00 PM 55.8°F13.2°C 55.5°F13.1°C 99% 0.5 mph WNW0.8 kmh WNW 2.5 mph4.0 kmh 29.49 in998.6 mb 0.00 in0.0 mm 0.00 in0.0 mm 0.21 in5.3 mm
09:05 PM 55.8°F13.2°C 55.5°F13.1°C 99% 3.7 mph N6.0 kmh N 9.8 mph15.8 kmh 29.49 in998.6 mb 0.00 in0.0 mm 0.00 in0.0 mm 0.21 in5.3 mm
09:10 PM 55.8°F13.2°C 55.5°F13.1°C 99% 0.4 mph NNW0.6 kmh NNW 2.5 mph4.0 kmh 29.49 in998.6 mb 0.00 in0.0 mm 0.00 in0.0 mm 0.21 in5.3 mm
09:15 PM 55.8°F13.2°C 55.5°F13.1°C 99% 1.2 mph N1.9 kmh N 2.5 mph4.0 kmh 29.49 in998.6 mb 0.00 in0.0 mm 0.00 in0.0 mm 0.21 in5.3 mm
09:20 PM 55.8°F13.2°C 55.5°F13.1°C 99% 2.8 mph NW4.5 kmh NW 7.4 mph11.9 kmh 29.49 in998.6 mb 0.00 in0.0 mm 0.00 in0.0 mm 0.21 in5.3 mm
09:25 PM 55.9°F13.3°C 55.6°F13.1°C 99% 2.3 mph NNE3.7 kmh NNE 4.9 mph7.9 kmh 29.49 in998.6 mb 0.00 in0.0 mm 0.00 in0.0 mm 0.21 in5.3 mm
09:30 PM 55.9°F13.3°C 55.6°F13.1°C 99% 1.9 mph NW3.1 kmh NW 7.4 mph11.9 kmh 29.49 in998.6 mb 0.00 in0.0 mm 0.00 in0.0 mm 0.21 in5.3 mm
09:35 PM 55.9°F13.3°C 55.6°F13.1°C 99% 1.7 mph NNW2.7 kmh NNW 4.9 mph7.9 kmh 29.49 in998.6 mb 0.00 in0.0 mm 0.00 in0.0 mm 0.21 in5.3 mm
09:40 PM 55.9°F13.3°C 55.6°F13.1°C 99% 2.8 mph N4.5 kmh N 7.4 mph11.9 kmh 29.50 in999.0 mb 0.00 in0.0 mm 0.00 in0.0 mm 0.21 in5.3 mm
09:45 PM 55.8°F13.2°C 55.5°F13.1°C 99% 2.5 mph 4.0 kmh 4.9 mph7.9 kmh 29.50 in999.0 mb 0.00 in0.0 mm 0.00 in0.0 mm 0.21 in5.3 mm
09:50 PM 55.8°F13.2°C 55.5°F13.1°C 99% 1.8 mph NNW2.9 kmh NNW 7.4 mph11.9 kmh 29.50 in999.0 mb 0.00 in0.0 mm 0.00 in0.0 mm 0.21 in5.3 mm
09:55 PM 55.8°F13.2°C 55.5°F13.1°C 99% 2.0 mph N3.2 kmh N 4.9 mph7.9 kmh 29.51 in999.3 mb 0.00 in0.0 mm 0.00 in0.0 mm 0.21 in5.3 mm
10:00 PM 55.6°F13.1°C 55.3°F12.9°C 99% 3.7 mph NNW6.0 kmh NNW 7.4 mph11.9 kmh 29.51 in999.3 mb 0.00 in0.0 mm 0.00 in0.0 mm 0.21 in5.3 mm
10:05 PM 55.6°F13.1°C 55.3°F12.9°C 99% 0.6 mph N1.0 kmh N 2.5 mph4.0 kmh 29.50 in999.0 mb 0.01 in0.3 mm 0.12 in3.0 mm 0.22 in5.6 mm
10:10 PM 55.4°F13.0°C 55.2°F12.9°C 99% 3.6 mph NNW5.8 kmh NNW 7.4 mph11.9 kmh 29.50 in999.0 mb 0.04 in1.0 mm 0.36 in9.1 mm 0.25 in6.4 mm
10:15 PM 55.4°F13.0°C 54.9°F12.7°C 98% 3.6 mph N5.8 kmh N 9.8 mph15.8 kmh 29.50 in999.0 mb 0.04 in1.0 mm 0.00 in0.0 mm 0.25 in6.4 mm
10:20 PM 55.4°F13.0°C 55.1°F12.8°C 99% 3.4 mph NNW5.5 kmh NNW 7.4 mph11.9 kmh 29.50 in999.0 mb 0.05 in1.3 mm 0.12 in3.0 mm 0.26 in6.6 mm
10:25 PM 55.4°F13.0°C 55.0°F12.8°C 99% 4.1 mph N6.6 kmh N 15.0 mph24.1 kmh 29.50 in999.0 mb 0.05 in1.3 mm 0.00 in0.0 mm 0.26 in6.6 mm
10:30 PM 55.4°F13.0°C 54.8°F12.7°C 98% 4.4 mph NW7.1 kmh NW 15.0 mph24.1 kmh 29.50 in999.0 mb 0.05 in1.3 mm 0.00 in0.0 mm 0.26 in6.6 mm
10:35 PM 55.4°F13.0°C 54.6°F12.6°C 97% 0.7 mph WNW1.1 kmh WNW 2.5 mph4.0 kmh 29.51 in999.3 mb 0.05 in1.3 mm 0.00 in0.0 mm 0.26 in6.6 mm
10:40 PM 55.3°F12.9°C 54.5°F12.5°C 97% 1.7 mph NW2.7 kmh NW 4.9 mph7.9 kmh 29.51 in999.3 mb 0.06 in1.5 mm 0.12 in3.0 mm 0.27 in6.9 mm
10:45 PM 55.0°F12.8°C 54.1°F12.3°C 97% 4.4 mph NNW7.1 kmh NNW 9.8 mph15.8 kmh 29.51 in999.3 mb 0.11 in2.8 mm 0.60 in15.2 mm 0.32 in8.1 mm
10:50 PM 54.9°F12.7°C 54.1°F12.3°C 97% 2.5 mph N4.0 kmh N 4.9 mph7.9 kmh 29.52 in999.7 mb 0.12 in3.0 mm 0.12 in3.0 mm 0.33 in8.4 mm
10:55 PM 54.9°F12.7°C 54.1°F12.3°C 97% 2.9 mph N4.7 kmh N 7.4 mph11.9 kmh 29.52 in999.7 mb 0.12 in3.0 mm 0.00 in0.0 mm 0.33 in8.4 mm
11:00 PM 54.9°F12.7°C 54.1°F12.3°C 97% 3.4 mph N5.5 kmh N 7.4 mph11.9 kmh 29.53 in1000.0 mb 0.12 in3.0 mm 0.00 in0.0 mm 0.33 in8.4 mm
11:05 PM 54.7°F12.6°C 53.9°F12.2°C 97% 2.5 mph NW4.0 kmh NW 4.9 mph7.9 kmh 29.52 in999.7 mb 0.12 in3.0 mm 0.00 in0.0 mm 0.34 in8.6 mm
11:10 PM 54.7°F12.6°C 53.9°F12.2°C 97% 4.0 mph NW6.4 kmh NW 7.4 mph11.9 kmh 29.52 in999.7 mb 0.09 in2.3 mm 0.00 in0.0 mm 0.34 in8.6 mm
11:15 PM 54.6°F12.6°C 53.7°F12.1°C 97% 3.9 mph NW6.3 kmh NW 9.8 mph15.8 kmh 29.52 in999.7 mb 0.09 in2.3 mm 0.00 in0.0 mm 0.34 in8.6 mm
11:20 PM 54.5°F12.5°C 53.7°F12.1°C 97% 2.9 mph NW4.7 kmh NW 9.8 mph15.8 kmh 29.52 in999.7 mb 0.08 in2.0 mm 0.00 in0.0 mm 0.34 in8.6 mm
11:25 PM 54.5°F12.5°C 53.7°F12.1°C 97% 6.5 mph N10.5 kmh N 12.3 mph19.8 kmh 29.52 in999.7 mb 0.08 in2.0 mm 0.00 in0.0 mm 0.34 in8.6 mm
11:30 PM 54.4°F12.4°C 53.5°F11.9°C 97% 4.9 mph NNW7.9 kmh NNW 7.4 mph11.9 kmh 29.52 in999.7 mb 0.08 in2.0 mm 0.00 in0.0 mm 0.34 in8.6 mm
11:35 PM 54.3°F12.4°C 53.5°F11.9°C 97% 2.4 mph NNW3.9 kmh NNW 7.4 mph11.9 kmh 29.53 in1000.0 mb 0.08 in2.0 mm 0.00 in0.0 mm 0.34 in8.6 mm
11:40 PM 54.2°F12.3°C 53.4°F11.9°C 97% 5.1 mph NNW8.2 kmh NNW 15.0 mph24.1 kmh 29.53 in1000.0 mb 0.07 in1.8 mm 0.00 in0.0 mm 0.34 in8.6 mm
11:45 PM 54.1°F12.3°C 53.3°F11.8°C 97% 4.0 mph N6.4 kmh N 9.8 mph15.8 kmh 29.53 in1000.0 mb 0.02 in0.5 mm 0.00 in0.0 mm 0.34 in8.6 mm
11:50 PM 54.1°F12.3°C 53.2°F11.8°C 97% 3.3 mph NNW5.3 kmh NNW 9.8 mph15.8 kmh 29.53 in1000.0 mb 0.01 in0.3 mm 0.00 in0.0 mm 0.34 in8.6 mm
11:55 PM 54.0°F12.2°C 53.2°F11.8°C 97% 5.0 mph NW8.0 kmh NW 15.0 mph24.1 kmh 29.53 in1000.0 mb 0.01 in0.3 mm 0.00 in0.0 mm 0.34 in8.6 mm